sensor_id;sensor_type;location;lat;lon;timestamp;pressure;altitude;pressure_sealevel;temperature;humidity
9717;BME280;4897;43.570;27.832;2024-01-06T00:02:24;99004.97;;;9.41;100.00
9717;BME280;4897;43.570;27.832;2024-01-06T00:04:51;99034.97;;;9.65;100.00
9717;BME280;4897;43.570;27.832;2024-01-06T00:07:18;99030.59;;;9.64;100.00
9717;BME280;4897;43.570;27.832;2024-01-06T00:09:45;99008.66;;;9.60;100.00
9717;BME280;4897;43.570;27.832;2024-01-06T00:12:11;99033.72;;;9.80;100.00
9717;BME280;4897;43.570;27.832;2024-01-06T00:14:40;99033.19;;;9.86;100.00
9717;BME280;4897;43.570;27.832;2024-01-06T00:17:12;99024.00;;;9.79;100.00
9717;BME280;4897;43.570;27.832;2024-01-06T00:19:39;99037.03;;;9.93;100.00
9717;BME280;4897;43.570;27.832;2024-01-06T00:22:06;98998.28;;;9.78;100.00
9717;BME280;4897;43.570;27.832;2024-01-06T00:24:33;99009.41;;;10.04;100.00
9717;BME280;4897;43.570;27.832;2024-01-06T00:26:59;98778.13;;;8.58;100.00
9717;BME280;4897;43.570;27.832;2024-01-06T00:29:26;98990.00;;;10.02;100.00
9717;BME280;4897;43.570;27.832;2024-01-06T00:31:53;98962.34;;;9.82;100.00
9717;BME280;4897;43.570;27.832;2024-01-06T00:34:22;99003.50;;;10.00;100.00
9717;BME280;4897;43.570;27.832;2024-01-06T00:36:48;98997.16;;;10.01;100.00
9717;BME280;4897;43.570;27.832;2024-01-06T00:39:15;99030.06;;;10.02;100.00
9717;BME280;4897;43.570;27.832;2024-01-06T00:41:42;98997.13;;;10.12;100.00
9717;BME280;4897;43.570;27.832;2024-01-06T00:44:09;98993.22;;;10.16;100.00
9717;BME280;4897;43.570;27.832;2024-01-06T00:46:36;98997.47;;;10.19;100.00
9717;BME280;4897;43.570;27.832;2024-01-06T00:49:03;99001.63;;;10.12;100.00
9717;BME280;4897;43.570;27.832;2024-01-06T00:51:31;98990.31;;;10.08;100.00
9717;BME280;4897;43.570;27.832;2024-01-06T00:53:58;98986.69;;;10.09;100.00
9717;BME280;4897;43.570;27.832;2024-01-06T00:56:25;98984.53;;;10.03;100.00
9717;BME280;4897;43.570;27.832;2024-01-06T00:58:52;98953.66;;;9.90;100.00
9717;BME280;4897;43.570;27.832;2024-01-06T01:01:19;98934.09;;;9.89;100.00
9717;BME280;4897;43.570;27.832;2024-01-06T01:03:46;98960.63;;;10.02;100.00
9717;BME280;4897;43.570;27.832;2024-01-06T01:06:13;98937.50;;;9.91;100.00
9717;BME280;4897;43.570;27.832;2024-01-06T01:08:42;98944.25;;;9.95;100.00
9717;BME280;4897;43.570;27.832;2024-01-06T01:11:08;98959.50;;;10.04;100.00
9717;BME280;4897;43.570;27.832;2024-01-06T01:13:35;98949.06;;;10.01;100.00
9717;BME280;4897;43.570;27.832;2024-01-06T01:16:02;98951.75;;;10.01;100.00
9717;BME280;4897;43.570;27.832;2024-01-06T01:18:30;98950.75;;;10.13;100.00
9717;BME280;4897;43.570;27.832;2024-01-06T01:20:57;98957.06;;;10.12;100.00
9717;BME280;4897;43.570;27.832;2024-01-06T01:23:24;98944.78;;;10.10;100.00
9717;BME280;4897;43.570;27.832;2024-01-06T01:25:52;98932.94;;;10.03;100.00
9717;BME280;4897;43.570;27.832;2024-01-06T01:28:19;98944.72;;;10.00;100.00
9717;BME280;4897;43.570;27.832;2024-01-06T01:30:46;98941.28;;;10.09;100.00
9717;BME280;4897;43.570;27.832;2024-01-06T01:33:12;98896.47;;;9.92;100.00
9717;BME280;4897;43.570;27.832;2024-01-06T01:35:39;98946.84;;;10.17;100.00
9717;BME280;4897;43.570;27.832;2024-01-06T01:38:07;98954.72;;;10.19;100.00
9717;BME280;4897;43.570;27.832;2024-01-06T01:40:33;98926.03;;;10.00;100.00
9717;BME280;4897;43.570;27.832;2024-01-06T01:43:02;98931.94;;;10.04;100.00
9717;BME280;4897;43.570;27.832;2024-01-06T01:45:29;98929.75;;;9.88;100.00
9717;BME280;4897;43.570;27.832;2024-01-06T01:47:56;98942.13;;;9.89;100.00
9717;BME280;4897;43.570;27.832;2024-01-06T01:50:23;98909.94;;;9.70;100.00
9717;BME280;4897;43.570;27.832;2024-01-06T01:52:53;98940.44;;;9.88;100.00
9717;BME280;4897;43.570;27.832;2024-01-06T01:55:20;98925.72;;;9.73;100.00
9717;BME280;4897;43.570;27.832;2024-01-06T01:57:47;98945.97;;;9.76;100.00
9717;BME280;4897;43.570;27.832;2024-01-06T02:00:16;98926.06;;;9.59;100.00
9717;BME280;4897;43.570;27.832;2024-01-06T02:02:43;98911.19;;;9.45;100.00
9717;BME280;4897;43.570;27.832;2024-01-06T02:05:10;98933.72;;;9.52;100.00
9717;BME280;4897;43.570;27.832;2024-01-06T02:07:37;98949.34;;;9.57;100.00
9717;BME280;4897;43.570;27.832;2024-01-06T02:10:05;98946.06;;;9.53;100.00
9717;BME280;4897;43.570;27.832;2024-01-06T02:12:32;98953.84;;;9.56;100.00
9717;BME280;4897;43.570;27.832;2024-01-06T02:14:59;98905.44;;;9.29;100.00
9717;BME280;4897;43.570;27.832;2024-01-06T02:17:27;98914.16;;;9.31;100.00
9717;BME280;4897;43.570;27.832;2024-01-06T02:19:54;98928.22;;;9.33;100.00
9717;BME280;4897;43.570;27.832;2024-01-06T02:22:23;98909.25;;;9.16;100.00
9717;BME280;4897;43.570;27.832;2024-01-06T02:24:50;98914.84;;;9.13;100.00
9717;BME280;4897;43.570;27.832;2024-01-06T02:27:17;98903.88;;;8.95;100.00
9717;BME280;4897;43.570;27.832;2024-01-06T02:29:44;98918.53;;;9.01;100.00
9717;BME280;4897;43.570;27.832;2024-01-06T02:32:10;98903.56;;;8.77;100.00
9717;BME280;4897;43.570;27.832;2024-01-06T02:34:37;98918.63;;;8.67;100.00
9717;BME280;4897;43.570;27.832;2024-01-06T02:37:04;98908.47;;;8.61;100.00
9717;BME280;4897;43.570;27.832;2024-01-06T02:39:33;98853.16;;;8.32;100.00
9717;BME280;4897;43.570;27.832;2024-01-06T02:41:59;98895.38;;;8.47;100.00
9717;BME280;4897;43.570;27.832;2024-01-06T02:44:26;98886.34;;;8.28;100.00
9717;BME280;4897;43.570;27.832;2024-01-06T02:46:53;98893.84;;;8.34;100.00
9717;BME280;4897;43.570;27.832;2024-01-06T02:49:20;98868.28;;;8.09;100.00
9717;BME280;4897;43.570;27.832;2024-01-06T02:51:47;98900.34;;;8.19;100.00
9717;BME280;4897;43.570;27.832;2024-01-06T02:54:14;98898.16;;;8.13;100.00
9717;BME280;4897;43.570;27.832;2024-01-06T02:56:42;98881.09;;;8.04;100.00
9717;BME280;4897;43.570;27.832;2024-01-06T02:59:09;98877.00;;;8.11;100.00
9717;BME280;4897;43.570;27.832;2024-01-06T03:01:36;98867.78;;;8.04;100.00
9717;BME280;4897;43.570;27.832;2024-01-06T03:04:03;98860.75;;;8.14;100.00
9717;BME280;4897;43.570;27.832;2024-01-06T03:06:30;98641.53;;;6.84;100.00
9717;BME280;4897;43.570;27.832;2024-01-06T03:08:57;98858.63;;;8.30;100.00
9717;BME280;4897;43.570;27.832;2024-01-06T03:11:24;98808.59;;;8.12;100.00
9717;BME280;4897;43.570;27.832;2024-01-06T03:13:52;98865.84;;;8.39;100.00
9717;BME280;4897;43.570;27.832;2024-01-06T03:16:19;98852.50;;;8.50;100.00
9717;BME280;4897;43.570;27.832;2024-01-06T03:18:46;98864.97;;;8.61;100.00
9717;BME280;4897;43.570;27.832;2024-01-06T03:21:17;98861.09;;;8.65;100.00
9717;BME280;4897;43.570;27.832;2024-01-06T03:23:44;98841.34;;;8.56;100.00
9717;BME280;4897;43.570;27.832;2024-01-06T03:26:11;98845.69;;;8.68;100.00
9717;BME280;4897;43.570;27.832;2024-01-06T03:28:38;98854.19;;;8.62;100.00
9717;BME280;4897;43.570;27.832;2024-01-06T03:31:06;98858.91;;;8.59;100.00
9717;BME280;4897;43.570;27.832;2024-01-06T03:33:33;98858.44;;;8.54;100.00
9717;BME280;4897;43.570;27.832;2024-01-06T03:36:04;98849.59;;;8.53;100.00
9717;BME280;4897;43.570;27.832;2024-01-06T03:38:31;98855.31;;;8.49;100.00
9717;BME280;4897;43.570;27.832;2024-01-06T03:40:58;98857.97;;;8.49;100.00
9717;BME280;4897;43.570;27.832;2024-01-06T03:43:25;98845.75;;;8.35;100.00
9717;BME280;4897;43.570;27.832;2024-01-06T03:45:51;98848.19;;;8.38;100.00
9717;BME280;4897;43.570;27.832;2024-01-06T03:48:22;98834.25;;;8.24;100.00
9717;BME280;4897;43.570;27.832;2024-01-06T03:50:49;98831.69;;;8.22;100.00
9717;BME280;4897;43.570;27.832;2024-01-06T03:53:16;98809.69;;;8.09;100.00
9717;BME280;4897;43.570;27.832;2024-01-06T03:55:43;98844.81;;;8.25;100.00
9717;BME280;4897;43.570;27.832;2024-01-06T03:58:10;98851.06;;;8.24;100.00
9717;BME280;4897;43.570;27.832;2024-01-06T04:00:36;98848.31;;;8.26;100.00
9717;BME280;4897;43.570;27.832;2024-01-06T04:03:04;98841.88;;;8.28;100.00
9717;BME280;4897;43.570;27.832;2024-01-06T04:05:33;98838.03;;;8.32;100.00
9717;BME280;4897;43.570;27.832;2024-01-06T04:08:00;98840.66;;;8.21;100.00
9717;BME280;4897;43.570;27.832;2024-01-06T04:10:27;98851.94;;;8.36;100.00
9717;BME280;4897;43.570;27.832;2024-01-06T04:12:54;98845.03;;;8.33;100.00
9717;BME280;4897;43.570;27.832;2024-01-06T04:15:21;98841.00;;;8.50;100.00
9717;BME280;4897;43.570;27.832;2024-01-06T04:17:48;98827.03;;;8.57;100.00
9717;BME280;4897;43.570;27.832;2024-01-06T04:20:16;98821.69;;;8.68;100.00
9717;BME280;4897;43.570;27.832;2024-01-06T04:22:44;98804.25;;;8.64;100.00
9717;BME280;4897;43.570;27.832;2024-01-06T04:25:11;98826.22;;;8.89;100.00
9717;BME280;4897;43.570;27.832;2024-01-06T04:27:38;98823.34;;;8.80;100.00
9717;BME280;4897;43.570;27.832;2024-01-06T04:30:05;98621.53;;;7.67;100.00
9717;BME280;4897;43.570;27.832;2024-01-06T04:32:32;98826.13;;;9.11;100.00
9717;BME280;4897;43.570;27.832;2024-01-06T04:34:59;98786.97;;;8.91;100.00
9717;BME280;4897;43.570;27.832;2024-01-06T04:37:26;98812.06;;;9.09;100.00
9717;BME280;4897;43.570;27.832;2024-01-06T04:39:55;98830.47;;;9.12;100.00
9717;BME280;4897;43.570;27.832;2024-01-06T04:42:22;98815.44;;;9.11;100.00
9717;BME280;4897;43.570;27.832;2024-01-06T04:44:49;98820.03;;;9.20;100.00
9717;BME280;4897;43.570;27.832;2024-01-06T04:47:16;98832.38;;;9.21;100.00
9717;BME280;4897;43.570;27.832;2024-01-06T04:49:43;98842.00;;;9.33;100.00
9717;BME280;4897;43.570;27.832;2024-01-06T04:52:10;98814.69;;;9.20;100.00
9717;BME280;4897;43.570;27.832;2024-01-06T04:54:37;98828.22;;;9.28;100.00
9717;BME280;4897;43.570;27.832;2024-01-06T04:57:05;98806.53;;;9.21;100.00
9717;BME280;4897;43.570;27.832;2024-01-06T04:59:32;98816.69;;;9.07;100.00
9717;BME280;4897;43.570;27.832;2024-01-06T05:01:59;98807.78;;;8.97;100.00
9717;BME280;4897;43.570;27.832;2024-01-06T05:04:26;98842.19;;;9.20;100.00
9717;BME280;4897;43.570;27.832;2024-01-06T05:06:54;98862.94;;;9.17;100.00
9717;BME280;4897;43.570;27.832;2024-01-06T05:09:20;98848.03;;;9.14;100.00
9717;BME280;4897;43.570;27.832;2024-01-06T05:11:47;98849.41;;;9.09;100.00
9717;BME280;4897;43.570;27.832;2024-01-06T05:14:16;98839.88;;;8.95;100.00
9717;BME280;4897;43.570;27.832;2024-01-06T05:16:42;98851.25;;;8.97;100.00
9717;BME280;4897;43.570;27.832;2024-01-06T05:19:09;98850.69;;;8.94;100.00
9717;BME280;4897;43.570;27.832;2024-01-06T05:21:36;98848.00;;;8.94;100.00
9717;BME280;4897;43.570;27.832;2024-01-06T05:24:05;98848.91;;;8.83;100.00
9717;BME280;4897;43.570;27.832;2024-01-06T05:26:32;98856.03;;;8.82;100.00
9717;BME280;4897;43.570;27.832;2024-01-06T05:28:59;98862.59;;;8.78;100.00
9717;BME280;4897;43.570;27.832;2024-01-06T05:31:27;98864.31;;;8.79;100.00
9717;BME280;4897;43.570;27.832;2024-01-06T05:33:54;98866.25;;;8.77;100.00
9717;BME280;4897;43.570;27.832;2024-01-06T05:36:21;98812.34;;;8.42;100.00
9717;BME280;4897;43.570;27.832;2024-01-06T05:38:48;98861.44;;;8.71;100.00
9717;BME280;4897;43.570;27.832;2024-01-06T05:41:15;98862.00;;;8.75;100.00
9717;BME280;4897;43.570;27.832;2024-01-06T05:43:42;98853.97;;;8.54;100.00
9717;BME280;4897;43.570;27.832;2024-01-06T05:46:09;98858.97;;;8.79;100.00
9717;BME280;4897;43.570;27.832;2024-01-06T05:48:37;98845.69;;;8.57;100.00
9717;BME280;4897;43.570;27.832;2024-01-06T05:51:06;98768.03;;;8.19;100.00
9717;BME280;4897;43.570;27.832;2024-01-06T05:53:33;98824.84;;;8.62;100.00
9717;BME280;4897;43.570;27.832;2024-01-06T05:56:01;98837.81;;;8.67;100.00
9717;BME280;4897;43.570;27.832;2024-01-06T05:58:28;98834.06;;;8.69;100.00
9717;BME280;4897;43.570;27.832;2024-01-06T06:00:55;98863.44;;;8.79;100.00
9717;BME280;4897;43.570;27.832;2024-01-06T06:03:23;98841.72;;;8.95;100.00
9717;BME280;4897;43.570;27.832;2024-01-06T06:05:51;98842.16;;;9.00;100.00
9717;BME280;4897;43.570;27.832;2024-01-06T06:08:18;98812.38;;;8.95;100.00
9717;BME280;4897;43.570;27.832;2024-01-06T06:10:45;98868.66;;;9.33;100.00
9717;BME280;4897;43.570;27.832;2024-01-06T06:13:26;98854.31;;;9.45;100.00
9717;BME280;4897;43.570;27.832;2024-01-06T06:15:54;98855.84;;;9.47;100.00
9717;BME280;4897;43.570;27.832;2024-01-06T06:18:21;98838.56;;;9.42;100.00
9717;BME280;4897;43.570;27.832;2024-01-06T06:20:48;98840.44;;;9.51;100.00
9717;BME280;4897;43.570;27.832;2024-01-06T06:23:16;98850.59;;;9.57;100.00
9717;BME280;4897;43.570;27.832;2024-01-06T06:25:43;98863.28;;;9.64;100.00
9717;BME280;4897;43.570;27.832;2024-01-06T06:28:10;98855.97;;;9.66;100.00
9717;BME280;4897;43.570;27.832;2024-01-06T06:30:37;98828.00;;;9.61;100.00
9717;BME280;4897;43.570;27.832;2024-01-06T06:33:04;98842.50;;;9.68;100.00
9717;BME280;4897;43.570;27.832;2024-01-06T06:35:32;98823.19;;;9.55;100.00
9717;BME280;4897;43.570;27.832;2024-01-06T06:38:01;98827.47;;;9.67;100.00
9717;BME280;4897;43.570;27.832;2024-01-06T06:40:32;98837.88;;;9.70;100.00
9717;BME280;4897;43.570;27.832;2024-01-06T06:42:58;98828.50;;;9.76;100.00
9717;BME280;4897;43.570;27.832;2024-01-06T06:45:25;98831.66;;;9.90;100.00
9717;BME280;4897;43.570;27.832;2024-01-06T06:47:52;98830.63;;;10.12;100.00
9717;BME280;4897;43.570;27.832;2024-01-06T06:50:19;98803.09;;;10.11;100.00
9717;BME280;4897;43.570;27.832;2024-01-06T06:52:47;98822.38;;;10.24;100.00
9717;BME280;4897;43.570;27.832;2024-01-06T06:55:14;98830.03;;;10.38;100.00
9717;BME280;4897;43.570;27.832;2024-01-06T06:57:42;98835.81;;;10.43;100.00
9717;BME280;4897;43.570;27.832;2024-01-06T07:00:09;98835.97;;;10.52;100.00
9717;BME280;4897;43.570;27.832;2024-01-06T07:02:38;98825.16;;;10.63;100.00
9717;BME280;4897;43.570;27.832;2024-01-06T07:05:05;98834.47;;;10.78;100.00
9717;BME280;4897;43.570;27.832;2024-01-06T07:07:33;98825.06;;;10.93;100.00
9717;BME280;4897;43.570;27.832;2024-01-06T07:10:00;98805.75;;;10.89;100.00
9717;BME280;4897;43.570;27.832;2024-01-06T07:12:27;98800.41;;;11.18;100.00
9717;BME280;4897;43.570;27.832;2024-01-06T07:14:55;98814.88;;;11.44;100.00
9717;BME280;4897;43.570;27.832;2024-01-06T07:17:24;98816.09;;;11.50;100.00
9717;BME280;4897;43.570;27.832;2024-01-06T07:19:51;98812.03;;;11.55;100.00
9717;BME280;4897;43.570;27.832;2024-01-06T07:22:19;98814.13;;;11.61;100.00
9717;BME280;4897;43.570;27.832;2024-01-06T07:24:46;98816.50;;;11.64;100.00
9717;BME280;4897;43.570;27.832;2024-01-06T07:27:13;98817.78;;;11.60;100.00
9717;BME280;4897;43.570;27.832;2024-01-06T07:29:40;98809.94;;;11.49;100.00
9717;BME280;4897;43.570;27.832;2024-01-06T07:32:08;98771.53;;;11.21;100.00
9717;BME280;4897;43.570;27.832;2024-01-06T07:34:35;98809.03;;;11.58;100.00
9717;BME280;4897;43.570;27.832;2024-01-06T07:37:02;98812.94;;;11.83;100.00
9717;BME280;4897;43.570;27.832;2024-01-06T07:39:29;98809.56;;;11.90;100.00
9717;BME280;4897;43.570;27.832;2024-01-06T07:41:56;98797.25;;;11.97;100.00
9717;BME280;4897;43.570;27.832;2024-01-06T07:44:23;98800.00;;;12.15;100.00
9717;BME280;4897;43.570;27.832;2024-01-06T07:46:51;98794.78;;;12.14;100.00
9717;BME280;4897;43.570;27.832;2024-01-06T07:49:19;98757.56;;;12.11;100.00
9717;BME280;4897;43.570;27.832;2024-01-06T07:51:46;98801.22;;;12.48;100.00
9717;BME280;4897;43.570;27.832;2024-01-06T07:54:13;98795.94;;;12.56;100.00
9717;BME280;4897;43.570;27.832;2024-01-06T07:56:40;98795.72;;;12.67;100.00
9717;BME280;4897;43.570;27.832;2024-01-06T07:59:09;98775.34;;;12.74;100.00
9717;BME280;4897;43.570;27.832;2024-01-06T08:01:39;98785.63;;;12.96;100.00
9717;BME280;4897;43.570;27.832;2024-01-06T08:04:08;98790.38;;;13.02;100.00
9717;BME280;4897;43.570;27.832;2024-01-06T08:06:35;98798.41;;;13.02;100.00
9717;BME280;4897;43.570;27.832;2024-01-06T08:09:03;98757.94;;;12.78;100.00
9717;BME280;4897;43.570;27.832;2024-01-06T08:11:30;98784.47;;;13.16;100.00
9717;BME280;4897;43.570;27.832;2024-01-06T08:13:56;98806.50;;;13.20;100.00
9717;BME280;4897;43.570;27.832;2024-01-06T08:16:23;98789.84;;;13.16;100.00
9717;BME280;4897;43.570;27.832;2024-01-06T08:18:50;98785.53;;;13.23;100.00
9717;BME280;4897;43.570;27.832;2024-01-06T08:21:17;98791.13;;;13.30;100.00
9717;BME280;4897;43.570;27.832;2024-01-06T08:23:45;98771.59;;;13.20;100.00
9717;BME280;4897;43.570;27.832;2024-01-06T08:26:15;98751.13;;;13.01;100.00
9717;BME280;4897;43.570;27.832;2024-01-06T08:28:42;98771.56;;;13.02;100.00
9717;BME280;4897;43.570;27.832;2024-01-06T08:31:11;98772.53;;;12.93;100.00
9717;BME280;4897;43.570;27.832;2024-01-06T08:33:38;98772.53;;;12.93;100.00
9717;BME280;4897;43.570;27.832;2024-01-06T08:36:06;98776.72;;;12.96;100.00
9717;BME280;4897;43.570;27.832;2024-01-06T08:38:35;98746.59;;;12.84;100.00
9717;BME280;4897;43.570;27.832;2024-01-06T08:41:04;98769.31;;;13.07;100.00
9717;BME280;4897;43.570;27.832;2024-01-06T08:43:31;98776.06;;;13.11;100.00
9717;BME280;4897;43.570;27.832;2024-01-06T08:45:57;98763.31;;;13.13;100.00
9717;BME280;4897;43.570;27.832;2024-01-06T08:48:25;98770.34;;;13.14;100.00
9717;BME280;4897;43.570;27.832;2024-01-06T08:50:51;98733.56;;;13.07;100.00
9717;BME280;4897;43.570;27.832;2024-01-06T08:53:18;98747.44;;;13.20;100.00
9717;BME280;4897;43.570;27.832;2024-01-06T08:55:45;98740.16;;;13.38;100.00
9717;BME280;4897;43.570;27.832;2024-01-06T08:58:13;98708.00;;;13.20;100.00
9717;BME280;4897;43.570;27.832;2024-01-06T09:00:40;98740.38;;;13.44;100.00
9717;BME280;4897;43.570;27.832;2024-01-06T09:03:07;98738.25;;;13.56;100.00
9717;BME280;4897;43.570;27.832;2024-01-06T09:05:35;98734.38;;;13.50;100.00
9717;BME280;4897;43.570;27.832;2024-01-06T09:08:05;98725.47;;;13.50;100.00
9717;BME280;4897;43.570;27.832;2024-01-06T09:10:32;98712.16;;;13.40;100.00
9717;BME280;4897;43.570;27.832;2024-01-06T09:13:02;98701.84;;;13.28;100.00
9717;BME280;4897;43.570;27.832;2024-01-06T09:15:31;98721.84;;;13.59;100.00
9717;BME280;4897;43.570;27.832;2024-01-06T09:18:00;98718.53;;;13.73;100.00
9717;BME280;4897;43.570;27.832;2024-01-06T09:20:30;98698.81;;;14.48;100.00
9717;BME280;4897;43.570;27.832;2024-01-06T09:23:03;98637.72;;;15.45;100.00
9717;BME280;4897;43.570;27.832;2024-01-06T09:25:30;98685.81;;;16.34;100.00
9717;BME280;4897;43.570;27.832;2024-01-06T09:27:57;98683.47;;;16.00;100.00
9717;BME280;4897;43.570;27.832;2024-01-06T09:30:25;98680.94;;;15.60;100.00
9717;BME280;4897;43.570;27.832;2024-01-06T09:32:54;98676.59;;;16.28;100.00
9717;BME280;4897;43.570;27.832;2024-01-06T09:35:21;98666.06;;;16.41;100.00
9717;BME280;4897;43.570;27.832;2024-01-06T09:37:48;98676.69;;;17.40;100.00
9717;BME280;4897;43.570;27.832;2024-01-06T09:40:21;98662.66;;;18.03;100.00
9717;BME280;4897;43.570;27.832;2024-01-06T09:42:49;98666.59;;;17.05;100.00
9717;BME280;4897;43.570;27.832;2024-01-06T09:45:17;98668.72;;;16.49;100.00
9717;BME280;4897;43.570;27.832;2024-01-06T09:47:47;98655.59;;;16.92;100.00
9717;BME280;4897;43.570;27.832;2024-01-06T09:50:17;98637.03;;;16.21;100.00
9717;BME280;4897;43.570;27.832;2024-01-06T09:52:45;98657.38;;;16.23;100.00
9717;BME280;4897;43.570;27.832;2024-01-06T09:55:23;98646.34;;;16.10;100.00
9717;BME280;4897;43.570;27.832;2024-01-06T09:57:51;98659.28;;;15.84;100.00
9717;BME280;4897;43.570;27.832;2024-01-06T10:00:19;98654.16;;;15.66;100.00
9717;BME280;4897;43.570;27.832;2024-01-06T10:02:46;98654.53;;;15.55;100.00
9717;BME280;4897;43.570;27.832;2024-01-06T10:05:16;98647.28;;;15.56;100.00
9717;BME280;4897;43.570;27.832;2024-01-06T10:07:44;98642.94;;;15.31;100.00
9717;BME280;4897;43.570;27.832;2024-01-06T10:10:14;98644.63;;;15.23;100.00
9717;BME280;4897;43.570;27.832;2024-01-06T10:12:42;98639.91;;;15.26;100.00
9717;BME280;4897;43.570;27.832;2024-01-06T10:15:10;98608.81;;;15.15;100.00
9717;BME280;4897;43.570;27.832;2024-01-06T10:17:38;98631.84;;;15.17;100.00
9717;BME280;4897;43.570;27.832;2024-01-06T10:20:08;98628.81;;;15.12;100.00
9717;BME280;4897;43.570;27.832;2024-01-06T10:22:37;98528.66;;;14.54;100.00
9717;BME280;4897;43.570;27.832;2024-01-06T10:25:05;98593.56;;;14.91;100.00
9717;BME280;4897;43.570;27.832;2024-01-06T10:27:35;98621.94;;;15.18;100.00
9717;BME280;4897;43.570;27.832;2024-01-06T10:30:02;98603.91;;;15.27;100.00
9717;BME280;4897;43.570;27.832;2024-01-06T10:32:31;98581.28;;;15.36;100.00
9717;BME280;4897;43.570;27.832;2024-01-06T10:34:58;98592.06;;;15.36;100.00
9717;BME280;4897;43.570;27.832;2024-01-06T10:37:26;98571.72;;;15.33;100.00
9717;BME280;4897;43.570;27.832;2024-01-06T10:40:07;98581.28;;;15.44;100.00
9717;BME280;4897;43.570;27.832;2024-01-06T10:42:34;98555.06;;;15.30;100.00
9717;BME280;4897;43.570;27.832;2024-01-06T10:45:04;98568.63;;;15.52;100.00
9717;BME280;4897;43.570;27.832;2024-01-06T10:47:34;98576.72;;;15.52;100.00
9717;BME280;4897;43.570;27.832;2024-01-06T10:50:05;98494.25;;;14.96;100.00
9717;BME280;4897;43.570;27.832;2024-01-06T10:52:34;98561.06;;;15.40;100.00
9717;BME280;4897;43.570;27.832;2024-01-06T10:55:01;98557.38;;;15.49;100.00
9717;BME280;4897;43.570;27.832;2024-01-06T10:57:30;98561.91;;;15.48;100.00
9717;BME280;4897;43.570;27.832;2024-01-06T10:59:58;98562.72;;;15.57;100.00
9717;BME280;4897;43.570;27.832;2024-01-06T11:02:31;98550.97;;;15.50;100.00
9717;BME280;4897;43.570;27.832;2024-01-06T11:04:58;98509.25;;;15.30;100.00
9717;BME280;4897;43.570;27.832;2024-01-06T11:07:25;98531.13;;;15.43;100.00
9717;BME280;4897;43.570;27.832;2024-01-06T11:09:56;98556.38;;;15.34;100.00
9717;BME280;4897;43.570;27.832;2024-01-06T11:12:24;98538.25;;;15.19;100.00
9717;BME280;4897;43.570;27.832;2024-01-06T11:14:53;98541.38;;;15.47;100.00
9717;BME280;4897;43.570;27.832;2024-01-06T11:17:50;98532.06;;;15.58;100.00
9717;BME280;4897;43.570;27.832;2024-01-06T11:20:19;98536.59;;;15.57;100.00
9717;BME280;4897;43.570;27.832;2024-01-06T11:22:47;98514.25;;;15.49;100.00
9717;BME280;4897;43.570;27.832;2024-01-06T11:25:15;98526.44;;;15.67;100.00
9717;BME280;4897;43.570;27.832;2024-01-06T11:27:43;98520.19;;;15.75;100.00
9717;BME280;4897;43.570;27.832;2024-01-06T11:30:20;98531.84;;;15.67;100.00
9717;BME280;4897;43.570;27.832;2024-01-06T11:32:50;98509.63;;;15.65;100.00
9717;BME280;4897;43.570;27.832;2024-01-06T11:35:19;98501.25;;;15.60;100.00
9717;BME280;4897;43.570;27.832;2024-01-06T11:37:54;98501.56;;;15.57;100.00
9717;BME280;4897;43.570;27.832;2024-01-06T11:40:27;98488.94;;;15.58;100.00
9717;BME280;4897;43.570;27.832;2024-01-06T11:43:00;98493.25;;;15.67;100.00
9717;BME280;4897;43.570;27.832;2024-01-06T11:45:29;98502.25;;;15.82;100.00
9717;BME280;4897;43.570;27.832;2024-01-06T11:47:58;98461.41;;;15.48;100.00
9717;BME280;4897;43.570;27.832;2024-01-06T11:50:29;98493.69;;;15.56;100.00
9717;BME280;4897;43.570;27.832;2024-01-06T11:52:56;98478.09;;;15.35;100.00
9717;BME280;4897;43.570;27.832;2024-01-06T11:55:25;98517.31;;;15.46;100.00
9717;BME280;4897;43.570;27.832;2024-01-06T11:57:53;98461.53;;;15.15;100.00
9717;BME280;4897;43.570;27.832;2024-01-06T12:00:22;98490.13;;;15.25;100.00
9717;BME280;4897;43.570;27.832;2024-01-06T12:02:55;98444.28;;;14.94;100.00
9717;BME280;4897;43.570;27.832;2024-01-06T12:05:22;98507.28;;;15.23;100.00
9717;BME280;4897;43.570;27.832;2024-01-06T12:07:53;98506.28;;;15.25;100.00
9717;BME280;4897;43.570;27.832;2024-01-06T12:10:22;98509.44;;;15.28;100.00
9717;BME280;4897;43.570;27.832;2024-01-06T12:12:56;98516.38;;;15.23;100.00
9717;BME280;4897;43.570;27.832;2024-01-06T12:15:24;98492.28;;;15.21;100.00
9717;BME280;4897;43.570;27.832;2024-01-06T12:17:53;98494.03;;;15.14;100.00
9717;BME280;4897;43.570;27.832;2024-01-06T12:20:21;98526.78;;;15.26;100.00
9717;BME280;4897;43.570;27.832;2024-01-06T12:22:48;98505.19;;;15.34;100.00
9717;BME280;4897;43.570;27.832;2024-01-06T12:25:16;98517.97;;;15.48;100.00
9717;BME280;4897;43.570;27.832;2024-01-06T12:27:43;98499.28;;;15.46;100.00
9717;BME280;4897;43.570;27.832;2024-01-06T12:30:13;98504.13;;;15.51;100.00
9717;BME280;4897;43.570;27.832;2024-01-06T12:32:42;98469.00;;;15.36;100.00
9717;BME280;4897;43.570;27.832;2024-01-06T12:35:11;98499.50;;;15.67;100.00
9717;BME280;4897;43.570;27.832;2024-01-06T12:37:38;98490.56;;;15.67;100.00
9717;BME280;4897;43.570;27.832;2024-01-06T12:40:06;98506.59;;;15.91;100.00
9717;BME280;4897;43.570;27.832;2024-01-06T12:42:36;98500.22;;;15.84;100.00
9717;BME280;4897;43.570;27.832;2024-01-06T12:45:04;98480.56;;;15.75;100.00
9717;BME280;4897;43.570;27.832;2024-01-06T12:47:31;98492.44;;;15.89;100.00
9717;BME280;4897;43.570;27.832;2024-01-06T12:49:58;98475.69;;;15.79;100.00
9717;BME280;4897;43.570;27.832;2024-01-06T12:52:26;98473.13;;;15.77;100.00
9717;BME280;4897;43.570;27.832;2024-01-06T12:54:53;98336.75;;;15.00;100.00
9717;BME280;4897;43.570;27.832;2024-01-06T12:57:20;98485.81;;;15.69;100.00
9717;BME280;4897;43.570;27.832;2024-01-06T12:59:47;98443.84;;;15.52;100.00
9717;BME280;4897;43.570;27.832;2024-01-06T13:02:17;98475.34;;;15.74;100.00
9717;BME280;4897;43.570;27.832;2024-01-06T13:04:46;98479.75;;;15.75;100.00
9717;BME280;4897;43.570;27.832;2024-01-06T13:07:13;98459.91;;;15.68;100.00
9717;BME280;4897;43.570;27.832;2024-01-06T13:09:41;98451.03;;;15.82;100.00